Fargo, North Dakota
Current Conditions -  °F | °C
As of 6:53 AM on Friday 19 Dec 2014 (Local Time) from KFAR Reporting Station
Haze Haze  
Wind Chill: 13°   Ceiling: 400
Heat Index: 25°   Visibility: 3mi
Dew Point: 22°   Wind: 14mph
Humidity: 88%   Direction: 160°SSE
Pressure: 30.09"   Gusts: NA
Location:  46.88°N, 96.78°W
Report Text: KFAR 191253Z 16012KT 3SM BR OVC004 M04/M06 A3009 RMK AO2 SLP205 T10391056
Loading
Personal Weather Stations






























Interactive Weather Map New forecast layout! Learn more

10-Day Weather Forecast

Advertisements
Track Severe Weather on mobile